createdAt,value
2023-04-03T03:35:05.538Z,99.90
2023-04-03T03:45:41.360Z,99.90
2023-04-03T03:56:17.283Z,99.90
2023-04-03T04:06:54.794Z,99.90
2023-04-03T04:17:30.714Z,99.90
2023-04-03T04:28:07.091Z,99.90
2023-04-03T04:38:42.972Z,99.90
2023-04-03T04:49:19.371Z,99.90
2023-04-03T04:59:55.484Z,99.90
2023-04-03T05:10:32.084Z,99.90
2023-04-03T05:21:08.257Z,99.90
2023-04-03T05:31:44.041Z,99.90
2023-04-03T05:42:22.335Z,99.90
2023-04-03T05:52:59.907Z,99.90
2023-04-03T06:03:40.065Z,99.90
2023-04-03T06:14:17.787Z,99.90
2023-04-03T06:24:54.081Z,78.90
2023-04-03T06:35:31.246Z,60.10
2023-04-03T06:46:07.209Z,60.10
2023-04-03T06:56:42.694Z,31.80
2023-04-03T07:07:18.588Z,18.30
2023-04-03T07:17:54.358Z,9.10
2023-04-03T07:28:30.680Z,6.50
2023-04-03T07:39:08.122Z,8.50
2023-04-03T07:49:44.667Z,3.60
2023-04-03T08:00:20.660Z,1.00
2023-04-03T08:10:56.062Z,1.00
2023-04-03T08:21:31.853Z,1.00
2023-04-03T08:32:07.477Z,1.00
2023-04-03T08:43:21.173Z,1.00
2023-04-03T08:54:05.591Z,1.00
2023-04-03T09:04:41.423Z,1.00
2023-04-03T09:15:35.474Z,1.00
2023-04-03T09:26:22.264Z,1.00
2023-04-03T09:37:00.183Z,1.00
2023-04-03T09:47:37.627Z,1.00
2023-04-03T09:58:49.738Z,1.00
2023-04-03T10:09:29.007Z,1.00
2023-04-03T10:20:16.569Z,1.00
2023-04-03T10:31:18.059Z,1.00
2023-04-03T10:42:08.937Z,1.00
2023-04-03T10:53:12.881Z,1.00
2023-04-03T11:03:54.342Z,1.00
2023-04-03T11:14:38.868Z,1.00
2023-04-03T11:25:23.104Z,1.00
2023-04-03T11:36:09.696Z,1.00
2023-04-03T11:47:01.378Z,1.00
2023-04-03T11:57:59.605Z,1.00
2023-04-03T12:08:41.260Z,1.00
2023-04-03T12:19:41.322Z,1.00
2023-04-03T12:30:28.584Z,1.00
2023-04-03T12:41:22.737Z,1.00
2023-04-03T12:51:58.584Z,1.00
2023-04-03T13:02:36.424Z,1.00
2023-04-03T13:13:15.927Z,1.00
2023-04-03T13:24:00.571Z,1.00
2023-04-03T13:34:47.099Z,1.00
2023-04-03T13:45:27.153Z,1.00
2023-04-03T13:56:09.906Z,1.00
2023-04-03T14:06:46.596Z,1.00
2023-04-03T14:17:25.618Z,1.00
2023-04-03T14:28:01.553Z,1.00
2023-04-03T14:38:37.390Z,1.00
2023-04-03T14:49:16.846Z,1.00
2023-04-03T14:59:53.081Z,1.00
2023-04-03T15:10:30.489Z,1.00
2023-04-03T15:21:06.655Z,1.00
2023-04-03T15:31:42.484Z,1.00
2023-04-03T15:42:18.269Z,1.00
2023-04-03T15:52:58.846Z,1.00
2023-04-03T16:03:34.938Z,1.00
2023-04-03T16:14:10.739Z,1.00
2023-04-03T16:24:46.477Z,1.00
2023-04-03T16:35:22.105Z,1.00
2023-04-03T16:45:58.285Z,1.00
2023-04-03T16:56:34.226Z,1.00
2023-04-03T17:07:10.060Z,1.00
2023-04-03T17:17:45.912Z,1.00
2023-04-03T17:28:28.530Z,1.00
2023-04-03T17:39:04.414Z,1.00
2023-04-03T17:49:39.874Z,1.00
2023-04-03T18:00:16.371Z,1.00
2023-04-03T18:10:52.182Z,1.00
2023-04-03T18:21:28.630Z,1.00
2023-04-03T18:32:07.123Z,1.00
2023-04-03T18:42:43.438Z,1.00
2023-04-03T18:53:19.211Z,1.00
2023-04-03T19:03:55.059Z,1.00
2023-04-03T19:14:30.433Z,1.00
2023-04-03T19:25:07.968Z,1.00
2023-04-03T19:35:44.019Z,1.00
2023-04-03T19:46:25.742Z,1.00
2023-04-03T19:57:02.010Z,1.00
2023-04-03T20:07:37.795Z,1.00
2023-04-03T20:18:19.370Z,1.00
2023-04-03T20:28:57.425Z,1.00
2023-04-03T20:39:32.995Z,1.00
2023-04-03T20:50:09.483Z,1.00
2023-04-03T21:00:45.463Z,1.00
2023-04-03T21:11:59.137Z,1.00
2023-04-03T21:22:35.153Z,1.00
